sensor_id;sensor_type;location;lat;lon;timestamp;P1;durP1;ratioP1;P2;durP2;ratioP2
59649;SDS011;46162;57.568;25.814;2022-11-24T00:01:10;11.30;;;5.82;;
59649;SDS011;46162;57.568;25.814;2022-11-24T00:03:41;13.15;;;6.10;;
59649;SDS011;46162;57.568;25.814;2022-11-24T00:06:11;14.15;;;7.13;;
59649;SDS011;46162;57.568;25.814;2022-11-24T00:08:42;12.55;;;6.80;;
59649;SDS011;46162;57.568;25.814;2022-11-24T00:11:14;11.73;;;5.72;;
59649;SDS011;46162;57.568;25.814;2022-11-24T00:13:43;14.23;;;6.93;;
59649;SDS011;46162;57.568;25.814;2022-11-24T00:16:13;10.98;;;6.50;;
59649;SDS011;46162;57.568;25.814;2022-11-24T00:18:44;15.63;;;6.65;;
59649;SDS011;46162;57.568;25.814;2022-11-24T00:21:14;11.65;;;6.53;;
59649;SDS011;46162;57.568;25.814;2022-11-24T00:23:44;12.73;;;6.63;;
59649;SDS011;46162;57.568;25.814;2022-11-24T00:26:16;13.70;;;6.68;;
59649;SDS011;46162;57.568;25.814;2022-11-24T00:28:46;13.38;;;6.65;;
59649;SDS011;46162;57.568;25.814;2022-11-24T00:31:17;14.77;;;6.57;;
59649;SDS011;46162;57.568;25.814;2022-11-24T00:33:47;13.67;;;6.57;;
59649;SDS011;46162;57.568;25.814;2022-11-24T00:36:17;15.00;;;6.33;;
59649;SDS011;46162;57.568;25.814;2022-11-24T00:38:47;12.73;;;5.72;;
59649;SDS011;46162;57.568;25.814;2022-11-24T00:41:21;11.95;;;5.85;;
59649;SDS011;46162;57.568;25.814;2022-11-24T00:43:50;13.13;;;6.20;;
59649;SDS011;46162;57.568;25.814;2022-11-24T00:46:19;11.52;;;5.97;;
59649;SDS011;46162;57.568;25.814;2022-11-24T00:48:49;11.90;;;5.45;;
59649;SDS011;46162;57.568;25.814;2022-11-24T00:51:19;11.77;;;6.05;;
59649;SDS011;46162;57.568;25.814;2022-11-24T00:56:18;10.05;;;5.10;;
59649;SDS011;46162;57.568;25.814;2022-11-24T00:58:49;11.95;;;5.47;;
59649;SDS011;46162;57.568;25.814;2022-11-24T01:01:18;12.88;;;6.72;;
59649;SDS011;46162;57.568;25.814;2022-11-24T01:03:48;15.25;;;6.78;;
59649;SDS011;46162;57.568;25.814;2022-11-24T01:06:17;15.55;;;6.97;;
59649;SDS011;46162;57.568;25.814;2022-11-24T01:08:48;13.48;;;6.35;;
59649;SDS011;46162;57.568;25.814;2022-11-24T01:11:17;12.30;;;6.05;;
59649;SDS011;46162;57.568;25.814;2022-11-24T01:13:50;16.00;;;8.00;;
59649;SDS011;46162;57.568;25.814;2022-11-24T01:16:21;16.63;;;6.20;;
59649;SDS011;46162;57.568;25.814;2022-11-24T01:18:51;18.05;;;5.55;;
59649;SDS011;46162;57.568;25.814;2022-11-24T01:21:20;16.60;;;6.50;;
59649;SDS011;46162;57.568;25.814;2022-11-24T01:23:49;15.57;;;6.90;;
59649;SDS011;46162;57.568;25.814;2022-11-24T01:26:18;13.27;;;5.88;;
59649;SDS011;46162;57.568;25.814;2022-11-24T01:28:52;16.70;;;6.53;;
59649;SDS011;46162;57.568;25.814;2022-11-24T01:31:22;14.95;;;7.18;;
59649;SDS011;46162;57.568;25.814;2022-11-24T01:33:51;15.85;;;7.15;;
59649;SDS011;46162;57.568;25.814;2022-11-24T01:36:20;13.27;;;6.78;;
59649;SDS011;46162;57.568;25.814;2022-11-24T01:38:50;11.80;;;5.82;;
59649;SDS011;46162;57.568;25.814;2022-11-24T01:41:19;20.23;;;7.55;;
59649;SDS011;46162;57.568;25.814;2022-11-24T01:43:50;12.40;;;6.75;;
59649;SDS011;46162;57.568;25.814;2022-11-24T01:46:21;16.42;;;7.40;;
59649;SDS011;46162;57.568;25.814;2022-11-24T01:48:56;13.60;;;6.63;;
59649;SDS011;46162;57.568;25.814;2022-11-24T01:51:30;14.70;;;6.45;;
59649;SDS011;46162;57.568;25.814;2022-11-24T01:54:03;15.77;;;6.82;;
59649;SDS011;46162;57.568;25.814;2022-11-24T01:56:36;17.08;;;6.85;;
59649;SDS011;46162;57.568;25.814;2022-11-24T01:59:10;14.80;;;6.95;;
59649;SDS011;46162;57.568;25.814;2022-11-24T02:01:40;14.77;;;6.95;;
59649;SDS011;46162;57.568;25.814;2022-11-24T02:04:10;15.90;;;7.45;;
59649;SDS011;46162;57.568;25.814;2022-11-24T02:06:42;13.13;;;6.40;;
59649;SDS011;46162;57.568;25.814;2022-11-24T02:09:15;17.88;;;7.45;;
59649;SDS011;46162;57.568;25.814;2022-11-24T02:11:50;15.85;;;6.55;;
59649;SDS011;46162;57.568;25.814;2022-11-24T02:14:22;12.63;;;6.80;;
59649;SDS011;46162;57.568;25.814;2022-11-24T02:16:53;14.27;;;7.28;;
59649;SDS011;46162;57.568;25.814;2022-11-24T02:19:26;16.73;;;6.95;;
59649;SDS011;46162;57.568;25.814;2022-11-24T02:22:01;16.80;;;7.63;;
59649;SDS011;46162;57.568;25.814;2022-11-24T02:24:32;15.52;;;7.05;;
59649;SDS011;46162;57.568;25.814;2022-11-24T02:27:07;16.30;;;6.93;;
59649;SDS011;46162;57.568;25.814;2022-11-24T02:29:37;17.83;;;7.63;;
59649;SDS011;46162;57.568;25.814;2022-11-24T02:32:07;17.52;;;7.38;;
59649;SDS011;46162;57.568;25.814;2022-11-24T02:34:38;19.50;;;8.18;;
59649;SDS011;46162;57.568;25.814;2022-11-24T02:37:07;16.25;;;7.57;;
59649;SDS011;46162;57.568;25.814;2022-11-24T02:39:36;19.75;;;7.78;;
59649;SDS011;46162;57.568;25.814;2022-11-24T02:42:05;20.13;;;8.35;;
59649;SDS011;46162;57.568;25.814;2022-11-24T02:44:39;19.15;;;8.30;;
59649;SDS011;46162;57.568;25.814;2022-11-24T02:47:10;18.00;;;7.68;;
59649;SDS011;46162;57.568;25.814;2022-11-24T02:49:40;17.27;;;8.38;;
59649;SDS011;46162;57.568;25.814;2022-11-24T02:52:08;17.73;;;8.00;;
59649;SDS011;46162;57.568;25.814;2022-11-24T02:54:37;16.90;;;7.45;;
59649;SDS011;46162;57.568;25.814;2022-11-24T02:57:06;17.75;;;8.02;;
59649;SDS011;46162;57.568;25.814;2022-11-24T02:59:36;16.95;;;8.65;;
59649;SDS011;46162;57.568;25.814;2022-11-24T03:02:05;16.15;;;7.60;;
59649;SDS011;46162;57.568;25.814;2022-11-24T03:04:34;17.98;;;8.30;;
59649;SDS011;46162;57.568;25.814;2022-11-24T03:07:02;19.05;;;8.40;;
59649;SDS011;46162;57.568;25.814;2022-11-24T03:09:31;18.50;;;8.70;;
59649;SDS011;46162;57.568;25.814;2022-11-24T03:12:00;19.48;;;9.20;;
59649;SDS011;46162;57.568;25.814;2022-11-24T03:14:30;17.75;;;9.38;;
59649;SDS011;46162;57.568;25.814;2022-11-24T03:16:59;18.08;;;9.48;;
59649;SDS011;46162;57.568;25.814;2022-11-24T03:19:28;18.33;;;8.23;;
59649;SDS011;46162;57.568;25.814;2022-11-24T03:21:56;19.50;;;9.95;;
59649;SDS011;46162;57.568;25.814;2022-11-24T03:24:25;21.30;;;9.88;;
59649;SDS011;46162;57.568;25.814;2022-11-24T03:26:54;18.73;;;8.38;;
59649;SDS011;46162;57.568;25.814;2022-11-24T03:29:22;18.08;;;8.25;;
59649;SDS011;46162;57.568;25.814;2022-11-24T03:31:52;16.75;;;7.85;;
59649;SDS011;46162;57.568;25.814;2022-11-24T03:34:21;16.17;;;8.07;;
59649;SDS011;46162;57.568;25.814;2022-11-24T03:36:50;17.55;;;8.88;;
59649;SDS011;46162;57.568;25.814;2022-11-24T03:39:18;14.55;;;7.45;;
59649;SDS011;46162;57.568;25.814;2022-11-24T03:41:47;15.88;;;7.90;;
59649;SDS011;46162;57.568;25.814;2022-11-24T03:44:17;14.52;;;7.60;;
59649;SDS011;46162;57.568;25.814;2022-11-24T03:46:45;19.15;;;8.32;;
59649;SDS011;46162;57.568;25.814;2022-11-24T03:49:16;14.85;;;7.95;;
59649;SDS011;46162;57.568;25.814;2022-11-24T03:51:45;14.02;;;7.82;;
59649;SDS011;46162;57.568;25.814;2022-11-24T03:54:13;19.08;;;8.85;;
59649;SDS011;46162;57.568;25.814;2022-11-24T03:56:42;18.63;;;8.23;;
59649;SDS011;46162;57.568;25.814;2022-11-24T03:59:11;19.38;;;8.27;;
59649;SDS011;46162;57.568;25.814;2022-11-24T04:01:39;18.02;;;8.15;;
59649;SDS011;46162;57.568;25.814;2022-11-24T04:04:09;15.70;;;8.55;;
59649;SDS011;46162;57.568;25.814;2022-11-24T04:06:43;18.70;;;9.23;;
59649;SDS011;46162;57.568;25.814;2022-11-24T04:09:12;17.25;;;8.98;;
59649;SDS011;46162;57.568;25.814;2022-11-24T04:11:41;15.18;;;7.82;;
59649;SDS011;46162;57.568;25.814;2022-11-24T04:14:30;16.92;;;7.95;;
59649;SDS011;46162;57.568;25.814;2022-11-24T04:16:59;14.55;;;7.70;;
59649;SDS011;46162;57.568;25.814;2022-11-24T04:19:30;18.10;;;8.50;;
59649;SDS011;46162;57.568;25.814;2022-11-24T04:22:01;16.77;;;8.48;;
59649;SDS011;46162;57.568;25.814;2022-11-24T04:24:30;16.90;;;7.78;;
59649;SDS011;46162;57.568;25.814;2022-11-24T04:27:00;15.65;;;7.10;;
59649;SDS011;46162;57.568;25.814;2022-11-24T04:29:30;15.38;;;7.22;;
59649;SDS011;46162;57.568;25.814;2022-11-24T04:32:01;14.27;;;7.25;;
59649;SDS011;46162;57.568;25.814;2022-11-24T04:34:34;15.68;;;7.28;;
59649;SDS011;46162;57.568;25.814;2022-11-24T04:37:08;14.07;;;6.85;;
59649;SDS011;46162;57.568;25.814;2022-11-24T04:39:37;15.45;;;8.50;;
59649;SDS011;46162;57.568;25.814;2022-11-24T04:42:06;14.23;;;6.85;;
59649;SDS011;46162;57.568;25.814;2022-11-24T04:44:35;14.43;;;7.80;;
59649;SDS011;46162;57.568;25.814;2022-11-24T04:47:11;16.70;;;7.80;;
59649;SDS011;46162;57.568;25.814;2022-11-24T04:49:45;13.73;;;7.10;;
59649;SDS011;46162;57.568;25.814;2022-11-24T04:52:16;13.60;;;7.35;;
59649;SDS011;46162;57.568;25.814;2022-11-24T04:54:48;11.93;;;6.53;;
59649;SDS011;46162;57.568;25.814;2022-11-24T04:57:18;15.45;;;7.47;;
59649;SDS011;46162;57.568;25.814;2022-11-24T04:59:48;12.32;;;6.53;;
59649;SDS011;46162;57.568;25.814;2022-11-24T05:02:19;12.65;;;6.80;;
59649;SDS011;46162;57.568;25.814;2022-11-24T05:04:49;16.75;;;7.10;;
59649;SDS011;46162;57.568;25.814;2022-11-24T05:07:19;16.60;;;7.97;;
59649;SDS011;46162;57.568;25.814;2022-11-24T05:09:51;17.85;;;7.57;;
59649;SDS011;46162;57.568;25.814;2022-11-24T05:12:39;15.48;;;7.65;;
59649;SDS011;46162;57.568;25.814;2022-11-24T05:15:15;16.08;;;7.20;;
59649;SDS011;46162;57.568;25.814;2022-11-24T05:17:44;13.82;;;7.47;;
59649;SDS011;46162;57.568;25.814;2022-11-24T05:22:43;12.85;;;7.10;;
59649;SDS011;46162;57.568;25.814;2022-11-24T05:25:13;15.88;;;8.43;;
59649;SDS011;46162;57.568;25.814;2022-11-24T05:27:44;15.90;;;7.93;;
59649;SDS011;46162;57.568;25.814;2022-11-24T05:30:14;14.43;;;7.35;;
59649;SDS011;46162;57.568;25.814;2022-11-24T05:32:43;17.10;;;7.57;;
59649;SDS011;46162;57.568;25.814;2022-11-24T05:35:12;13.63;;;7.55;;
59649;SDS011;46162;57.568;25.814;2022-11-24T05:37:45;11.77;;;6.68;;
59649;SDS011;46162;57.568;25.814;2022-11-24T05:40:17;14.68;;;7.78;;
59649;SDS011;46162;57.568;25.814;2022-11-24T05:42:46;14.55;;;7.38;;
59649;SDS011;46162;57.568;25.814;2022-11-24T05:45:16;14.68;;;7.15;;
59649;SDS011;46162;57.568;25.814;2022-11-24T05:47:49;17.00;;;7.78;;
59649;SDS011;46162;57.568;25.814;2022-11-24T05:50:19;14.07;;;7.80;;
59649;SDS011;46162;57.568;25.814;2022-11-24T05:55:20;15.13;;;6.70;;
59649;SDS011;46162;57.568;25.814;2022-11-24T05:57:49;16.08;;;8.23;;
59649;SDS011;46162;57.568;25.814;2022-11-24T06:00:26;15.48;;;7.28;;
59649;SDS011;46162;57.568;25.814;2022-11-24T06:02:55;15.05;;;7.03;;
59649;SDS011;46162;57.568;25.814;2022-11-24T06:05:25;13.00;;;6.95;;
59649;SDS011;46162;57.568;25.814;2022-11-24T06:07:59;14.18;;;8.02;;
59649;SDS011;46162;57.568;25.814;2022-11-24T06:10:28;13.68;;;7.55;;
59649;SDS011;46162;57.568;25.814;2022-11-24T06:12:57;13.68;;;7.47;;
59649;SDS011;46162;57.568;25.814;2022-11-24T06:15:26;14.52;;;7.70;;
59649;SDS011;46162;57.568;25.814;2022-11-24T06:17:59;12.02;;;7.07;;
59649;SDS011;46162;57.568;25.814;2022-11-24T06:20:28;14.70;;;7.82;;
59649;SDS011;46162;57.568;25.814;2022-11-24T06:23:00;11.20;;;6.97;;
59649;SDS011;46162;57.568;25.814;2022-11-24T06:25:29;14.57;;;8.18;;
59649;SDS011;46162;57.568;25.814;2022-11-24T06:28:02;14.52;;;6.85;;
59649;SDS011;46162;57.568;25.814;2022-11-24T06:30:31;16.77;;;8.20;;
59649;SDS011;46162;57.568;25.814;2022-11-24T06:33:02;15.07;;;8.18;;
59649;SDS011;46162;57.568;25.814;2022-11-24T06:35:31;13.77;;;7.53;;
59649;SDS011;46162;57.568;25.814;2022-11-24T06:38:02;16.73;;;7.70;;
59649;SDS011;46162;57.568;25.814;2022-11-24T06:40:31;16.05;;;8.15;;
59649;SDS011;46162;57.568;25.814;2022-11-24T06:43:00;16.90;;;8.85;;
59649;SDS011;46162;57.568;25.814;2022-11-24T06:45:29;13.73;;;8.15;;
59649;SDS011;46162;57.568;25.814;2022-11-24T06:47:58;14.65;;;8.00;;
59649;SDS011;46162;57.568;25.814;2022-11-24T06:50:26;17.80;;;7.93;;
59649;SDS011;46162;57.568;25.814;2022-11-24T06:52:59;16.92;;;8.27;;
59649;SDS011;46162;57.568;25.814;2022-11-24T06:55:29;15.13;;;8.32;;
59649;SDS011;46162;57.568;25.814;2022-11-24T06:57:57;18.00;;;9.30;;
59649;SDS011;46162;57.568;25.814;2022-11-24T07:00:26;17.88;;;9.40;;
59649;SDS011;46162;57.568;25.814;2022-11-24T07:02:57;16.05;;;8.55;;
59649;SDS011;46162;57.568;25.814;2022-11-24T07:05:26;19.77;;;8.95;;
59649;SDS011;46162;57.568;25.814;2022-11-24T07:07:55;20.00;;;9.40;;
59649;SDS011;46162;57.568;25.814;2022-11-24T07:10:26;17.00;;;8.68;;
59649;SDS011;46162;57.568;25.814;2022-11-24T07:12:56;17.13;;;8.38;;
59649;SDS011;46162;57.568;25.814;2022-11-24T07:15:24;19.17;;;9.47;;
59649;SDS011;46162;57.568;25.814;2022-11-24T07:17:55;18.65;;;8.95;;
59649;SDS011;46162;57.568;25.814;2022-11-24T07:20:24;16.35;;;8.68;;
59649;SDS011;46162;57.568;25.814;2022-11-24T07:22:53;16.88;;;9.10;;
59649;SDS011;46162;57.568;25.814;2022-11-24T07:25:23;17.20;;;9.18;;
59649;SDS011;46162;57.568;25.814;2022-11-24T07:27:55;17.98;;;9.15;;
59649;SDS011;46162;57.568;25.814;2022-11-24T07:30:25;19.55;;;9.63;;
59649;SDS011;46162;57.568;25.814;2022-11-24T07:32:57;21.95;;;10.43;;
59649;SDS011;46162;57.568;25.814;2022-11-24T07:35:26;17.65;;;9.70;;
59649;SDS011;46162;57.568;25.814;2022-11-24T07:37:56;19.25;;;10.60;;
59649;SDS011;46162;57.568;25.814;2022-11-24T07:40:25;19.88;;;9.57;;
59649;SDS011;46162;57.568;25.814;2022-11-24T07:42:56;17.88;;;9.02;;
59649;SDS011;46162;57.568;25.814;2022-11-24T07:45:29;19.70;;;9.65;;
59649;SDS011;46162;57.568;25.814;2022-11-24T07:47:57;18.13;;;9.18;;
59649;SDS011;46162;57.568;25.814;2022-11-24T07:50:26;17.20;;;9.10;;
59649;SDS011;46162;57.568;25.814;2022-11-24T07:52:54;18.70;;;9.50;;
59649;SDS011;46162;57.568;25.814;2022-11-24T07:55:28;17.20;;;8.93;;
59649;SDS011;46162;57.568;25.814;2022-11-24T07:58:01;18.23;;;9.70;;
59649;SDS011;46162;57.568;25.814;2022-11-24T08:00:30;18.80;;;9.88;;
59649;SDS011;46162;57.568;25.814;2022-11-24T08:02:58;24.65;;;14.88;;
59649;SDS011;46162;57.568;25.814;2022-11-24T08:05:27;20.05;;;10.27;;
59649;SDS011;46162;57.568;25.814;2022-11-24T08:07:57;19.60;;;9.65;;
59649;SDS011;46162;57.568;25.814;2022-11-24T08:10:27;19.80;;;9.52;;
59649;SDS011;46162;57.568;25.814;2022-11-24T08:12:58;16.65;;;8.90;;
59649;SDS011;46162;57.568;25.814;2022-11-24T08:17:59;18.08;;;9.05;;
59649;SDS011;46162;57.568;25.814;2022-11-24T08:20:28;19.65;;;9.23;;
59649;SDS011;46162;57.568;25.814;2022-11-24T08:22:57;16.55;;;8.68;;
59649;SDS011;46162;57.568;25.814;2022-11-24T08:25:26;20.05;;;9.63;;
59649;SDS011;46162;57.568;25.814;2022-11-24T08:27:58;16.35;;;8.98;;
59649;SDS011;46162;57.568;25.814;2022-11-24T08:30:26;19.35;;;9.52;;
59649;SDS011;46162;57.568;25.814;2022-11-24T08:32:58;18.42;;;9.98;;
59649;SDS011;46162;57.568;25.814;2022-11-24T08:35:28;20.05;;;10.27;;
59649;SDS011;46162;57.568;25.814;2022-11-24T08:37:56;18.40;;;9.07;;
59649;SDS011;46162;57.568;25.814;2022-11-24T08:40:30;17.45;;;8.73;;
59649;SDS011;46162;57.568;25.814;2022-11-24T08:42:59;18.08;;;9.23;;
59649;SDS011;46162;57.568;25.814;2022-11-24T08:45:28;18.35;;;9.52;;
59649;SDS011;46162;57.568;25.814;2022-11-24T08:48:04;19.92;;;9.50;;
59649;SDS011;46162;57.568;25.814;2022-11-24T08:50:33;19.75;;;9.88;;
59649;SDS011;46162;57.568;25.814;2022-11-24T08:53:01;19.52;;;9.82;;
59649;SDS011;46162;57.568;25.814;2022-11-24T08:55:30;18.20;;;9.05;;
59649;SDS011;46162;57.568;25.814;2022-11-24T08:57:59;16.50;;;8.52;;
59649;SDS011;46162;57.568;25.814;2022-11-24T09:00:27;17.45;;;8.60;;
59649;SDS011;46162;57.568;25.814;2022-11-24T09:02:56;18.67;;;9.57;;
59649;SDS011;46162;57.568;25.814;2022-11-24T09:05:27;19.50;;;9.55;;
59649;SDS011;46162;57.568;25.814;2022-11-24T09:08:15;21.85;;;10.63;;
59649;SDS011;46162;57.568;25.814;2022-11-24T09:10:44;19.73;;;9.98;;
59649;SDS011;46162;57.568;25.814;2022-11-24T09:13:13;20.58;;;10.05;;
59649;SDS011;46162;57.568;25.814;2022-11-24T09:15:41;23.35;;;10.80;;
59649;SDS011;46162;57.568;25.814;2022-11-24T09:18:10;19.45;;;9.85;;
59649;SDS011;46162;57.568;25.814;2022-11-24T09:20:40;17.98;;;9.55;;
59649;SDS011;46162;57.568;25.814;2022-11-24T09:23:18;21.58;;;9.38;;
59649;SDS011;46162;57.568;25.814;2022-11-24T09:25:47;16.35;;;8.25;;
59649;SDS011;46162;57.568;25.814;2022-11-24T09:28:15;17.02;;;8.70;;
59649;SDS011;46162;57.568;25.814;2022-11-24T09:30:44;15.55;;;7.63;;
59649;SDS011;46162;57.568;25.814;2022-11-24T09:33:13;17.25;;;8.48;;
59649;SDS011;46162;57.568;25.814;2022-11-24T09:35:43;16.30;;;8.07;;
59649;SDS011;46162;57.568;25.814;2022-11-24T09:38:11;17.87;;;8.90;;
59649;SDS011;46162;57.568;25.814;2022-11-24T09:40:40;16.85;;;7.95;;
59649;SDS011;46162;57.568;25.814;2022-11-24T09:43:10;15.98;;;8.18;;
59649;SDS011;46162;57.568;25.814;2022-11-24T09:45:46;16.60;;;8.05;;
59649;SDS011;46162;57.568;25.814;2022-11-24T09:48:36;16.03;;;8.20;;
59649;SDS011;46162;57.568;25.814;2022-11-24T09:51:10;16.25;;;7.65;;
59649;SDS011;46162;57.568;25.814;2022-11-24T09:53:41;15.90;;;7.53;;
59649;SDS011;46162;57.568;25.814;2022-11-24T09:56:16;18.08;;;8.32;;
59649;SDS011;46162;57.568;25.814;2022-11-24T09:58:48;14.23;;;7.47;;
59649;SDS011;46162;57.568;25.814;2022-11-24T10:01:19;15.30;;;7.60;;
59649;SDS011;46162;57.568;25.814;2022-11-24T10:03:51;15.07;;;7.22;;
59649;SDS011;46162;57.568;25.814;2022-11-24T10:06:23;15.88;;;8.00;;
59649;SDS011;46162;57.568;25.814;2022-11-24T10:08:59;14.18;;;7.95;;
59649;SDS011;46162;57.568;25.814;2022-11-24T10:11:36;15.23;;;8.00;;
59649;SDS011;46162;57.568;25.814;2022-11-24T10:14:30;13.63;;;7.43;;
59649;SDS011;46162;57.568;25.814;2022-11-24T10:17:24;12.27;;;7.38;;
59649;SDS011;46162;57.568;25.814;2022-11-24T10:20:08;11.90;;;6.97;;
59649;SDS011;46162;57.568;25.814;2022-11-24T10:22:45;14.68;;;7.78;;
59649;SDS011;46162;57.568;25.814;2022-11-24T10:25:23;15.43;;;7.05;;
59649;SDS011;46162;57.568;25.814;2022-11-24T10:27:54;13.85;;;7.30;;
59649;SDS011;46162;57.568;25.814;2022-11-24T10:30:26;13.32;;;7.03;;
59649;SDS011;46162;57.568;25.814;2022-11-24T10:32:55;15.27;;;7.50;;
59649;SDS011;46162;57.568;25.814;2022-11-24T10:35:27;11.70;;;6.60;;
59649;SDS011;46162;57.568;25.814;2022-11-24T10:38:06;13.63;;;7.20;;
59649;SDS011;46162;57.568;25.814;2022-11-24T10:40:43;12.45;;;6.97;;
59649;SDS011;46162;57.568;25.814;2022-11-24T10:43:24;12.73;;;6.78;;
59649;SDS011;46162;57.568;25.814;2022-11-24T10:45:53;15.38;;;7.88;;
59649;SDS011;46162;57.568;25.814;2022-11-24T10:48:27;13.13;;;6.55;;
59649;SDS011;46162;57.568;25.814;2022-11-24T10:51:10;13.60;;;6.50;;
59649;SDS011;46162;57.568;25.814;2022-11-24T10:53:58;12.98;;;6.88;;
59649;SDS011;46162;57.568;25.814;2022-11-24T10:56:37;12.52;;;6.72;;
59649;SDS011;46162;57.568;25.814;2022-11-24T10:59:20;10.20;;;5.70;;
59649;SDS011;46162;57.568;25.814;2022-11-24T11:01:56;12.10;;;6.70;;
59649;SDS011;46162;57.568;25.814;2022-11-24T11:04:26;13.38;;;7.30;;
59649;SDS011;46162;57.568;25.814;2022-11-24T11:07:13;12.52;;;6.75;;
59649;SDS011;46162;57.568;25.814;2022-11-24T11:09:46;12.25;;;6.47;;
59649;SDS011;46162;57.568;25.814;2022-11-24T11:12:19;12.55;;;6.82;;
59649;SDS011;46162;57.568;25.814;2022-11-24T11:15:24;12.55;;;6.25;;
59649;SDS011;46162;57.568;25.814;2022-11-24T11:17:56;14.75;;;6.55;;
59649;SDS011;46162;57.568;25.814;2022-11-24T11:20:26;11.43;;;6.25;;
59649;SDS011;46162;57.568;25.814;2022-11-24T11:22:59;11.77;;;6.15;;
59649;SDS011;46162;57.568;25.814;2022-11-24T11:25:33;11.75;;;5.35;;
59649;SDS011;46162;57.568;25.814;2022-11-24T11:28:14;11.25;;;6.85;;
59649;SDS011;46162;57.568;25.814;2022-11-24T11:30:56;12.30;;;6.03;;
59649;SDS011;46162;57.568;25.814;2022-11-24T11:33:53;10.93;;;5.28;;
59649;SDS011;46162;57.568;25.814;2022-11-24T11:36:40;13.32;;;6.22;;
59649;SDS011;46162;57.568;25.814;2022-11-24T11:39:15;9.13;;;4.53;;
59649;SDS011;46162;57.568;25.814;2022-11-24T11:41:55;10.45;;;5.25;;
59649;SDS011;46162;57.568;25.814;2022-11-24T11:44:34;10.15;;;4.93;;
59649;SDS011;46162;57.568;25.814;2022-11-24T11:47:14;9.05;;;5.07;;
59649;SDS011;46162;57.568;25.814;2022-11-24T11:49:49;10.38;;;5.70;;
59649;SDS011;46162;57.568;25.814;2022-11-24T11:52:33;8.50;;;4.65;;
59649;SDS011;46162;57.568;25.814;2022-11-24T11:55:14;10.20;;;5.43;;
59649;SDS011;46162;57.568;25.814;2022-11-24T11:57:59;10.23;;;5.00;;
59649;SDS011;46162;57.568;25.814;2022-11-24T12:00:44;10.07;;;5.13;;
59649;SDS011;46162;57.568;25.814;2022-11-24T12:03:21;9.27;;;5.13;;
59649;SDS011;46162;57.568;25.814;2022-11-24T12:06:03;10.80;;;5.72;;
59649;SDS011;46162;57.568;25.814;2022-11-24T12:08:48;10.93;;;5.50;;
59649;SDS011;46162;57.568;25.814;2022-11-24T12:11:46;12.50;;;6.50;;
59649;SDS011;46162;57.568;25.814;2022-11-24T12:14:25;12.45;;;7.13;;
59649;SDS011;46162;57.568;25.814;2022-11-24T12:17:05;11.70;;;6.00;;
59649;SDS011;46162;57.568;25.814;2022-11-24T12:19:49;10.98;;;5.35;;
59649;SDS011;46162;57.568;25.814;2022-11-24T12:22:31;15.38;;;6.65;;
59649;SDS011;46162;57.568;25.814;2022-11-24T12:25:15;10.20;;;5.32;;
59649;SDS011;46162;57.568;25.814;2022-11-24T12:27:51;9.10;;;5.10;;
59649;SDS011;46162;57.568;25.814;2022-11-24T12:30:32;7.43;;;4.45;;
59649;SDS011;46162;57.568;25.814;2022-11-24T12:33:22;10.10;;;5.40;;
59649;SDS011;46162;57.568;25.814;2022-11-24T12:36:06;8.98;;;4.85;;
59649;SDS011;46162;57.568;25.814;2022-11-24T12:38:46;9.80;;;4.07;;
59649;SDS011;46162;57.568;25.814;2022-11-24T12:41:27;8.95;;;4.57;;
59649;SDS011;46162;57.568;25.814;2022-11-24T12:44:10;7.82;;;4.07;;
59649;SDS011;46162;57.568;25.814;2022-11-24T12:46:53;9.43;;;4.72;;
59649;SDS011;46162;57.568;25.814;2022-11-24T12:49:32;9.85;;;5.22;;
59649;SDS011;46162;57.568;25.814;2022-11-24T12:52:09;9.93;;;4.18;;
59649;SDS011;46162;57.568;25.814;2022-11-24T12:54:46;9.50;;;4.57;;
59649;SDS011;46162;57.568;25.814;2022-11-24T12:57:16;8.80;;;4.90;;
59649;SDS011;46162;57.568;25.814;2022-11-24T12:59:50;9.20;;;4.55;;
59649;SDS011;46162;57.568;25.814;2022-11-24T13:02:28;8.10;;;4.70;;
59649;SDS011;46162;57.568;25.814;2022-11-24T13:05:12;8.75;;;4.13;;
59649;SDS011;46162;57.568;25.814;2022-11-24T13:07:49;8.68;;;4.22;;
59649;SDS011;46162;57.568;25.814;2022-11-24T13:10:26;9.25;;;5.18;;
59649;SDS011;46162;57.568;25.814;2022-11-24T13:13:16;9.18;;;4.68;;
59649;SDS011;46162;57.568;25.814;2022-11-24T13:16:01;10.30;;;5.05;;
59649;SDS011;46162;57.568;25.814;2022-11-24T13:19:01;10.30;;;4.47;;
59649;SDS011;46162;57.568;25.814;2022-11-24T13:24:42;9.95;;;4.93;;
59649;SDS011;46162;57.568;25.814;2022-11-24T13:27:24;12.20;;;5.20;;
59649;SDS011;46162;57.568;25.814;2022-11-24T13:29:55;9.85;;;5.65;;
59649;SDS011;46162;57.568;25.814;2022-11-24T13:35:28;7.70;;;4.63;;
59649;SDS011;46162;57.568;25.814;2022-11-24T13:37:57;10.98;;;5.22;;
59649;SDS011;46162;57.568;25.814;2022-11-24T13:40:39;11.02;;;5.03;;
59649;SDS011;46162;57.568;25.814;2022-11-24T13:43:30;8.63;;;4.13;;
59649;SDS011;46162;57.568;25.814;2022-11-24T13:45:58;9.73;;;4.93;;
59649;SDS011;46162;57.568;25.814;2022-11-24T13:51:29;9.25;;;4.43;;
59649;SDS011;46162;57.568;25.814;2022-11-24T13:53:57;9.40;;;4.80;;
59649;SDS011;46162;57.568;25.814;2022-11-24T13:56:28;11.38;;;5.25;;
59649;SDS011;46162;57.568;25.814;2022-11-24T13:59:02;10.83;;;5.37;;
59649;SDS011;46162;57.568;25.814;2022-11-24T14:01:44;9.90;;;4.95;;
59649;SDS011;46162;57.568;25.814;2022-11-24T14:04:24;11.02;;;5.13;;
59649;SDS011;46162;57.568;25.814;2022-11-24T14:06:59;12.27;;;5.70;;
59649;SDS011;46162;57.568;25.814;2022-11-24T14:09:36;9.60;;;5.15;;
59649;SDS011;46162;57.568;25.814;2022-11-24T14:12:13;11.40;;;5.30;;
59649;SDS011;46162;57.568;25.814;2022-11-24T14:14:43;11.23;;;5.78;;
59649;SDS011;46162;57.568;25.814;2022-11-24T14:17:14;11.25;;;5.60;;
59649;SDS011;46162;57.568;25.814;2022-11-24T14:19:49;10.75;;;5.78;;
59649;SDS011;46162;57.568;25.814;2022-11-24T14:22:21;11.27;;;5.75;;
59649;SDS011;46162;57.568;25.814;2022-11-24T14:24:54;12.60;;;6.65;;
59649;SDS011;46162;57.568;25.814;2022-11-24T14:27:25;12.63;;;6.30;;
59649;SDS011;46162;57.568;25.814;2022-11-24T14:29:57;10.13;;;5.40;;
59649;SDS011;46162;57.568;25.814;2022-11-24T14:32:30;12.82;;;6.75;;
59649;SDS011;46162;57.568;25.814;2022-11-24T14:34:59;11.80;;;6.28;;
59649;SDS011;46162;57.568;25.814;2022-11-24T14:37:29;11.75;;;6.20;;
59649;SDS011;46162;57.568;25.814;2022-11-24T14:39:58;11.35;;;5.72;;
59649;SDS011;46162;57.568;25.814;2022-11-24T14:42:26;10.88;;;5.95;;
59649;SDS011;46162;57.568;25.814;2022-11-24T14:44:55;15.27;;;6.15;;
59649;SDS011;46162;57.568;25.814;2022-11-24T14:47:27;11.85;;;6.93;;
59649;SDS011;46162;57.568;25.814;2022-11-24T14:50:08;14.05;;;6.45;;
59649;SDS011;46162;57.568;25.814;2022-11-24T14:57:54;9.80;;;5.60;;
59649;SDS011;46162;57.568;25.814;2022-11-24T15:00:26;11.55;;;6.53;;
59649;SDS011;46162;57.568;25.814;2022-11-24T15:03:06;12.93;;;6.60;;
59649;SDS011;46162;57.568;25.814;2022-11-24T15:05:51;14.73;;;7.45;;
59649;SDS011;46162;57.568;25.814;2022-11-24T15:08:23;12.37;;;6.27;;
59649;SDS011;46162;57.568;25.814;2022-11-24T15:10:57;13.32;;;6.82;;
59649;SDS011;46162;57.568;25.814;2022-11-24T15:13:27;13.50;;;6.60;;
59649;SDS011;46162;57.568;25.814;2022-11-24T15:16:01;14.10;;;7.35;;
59649;SDS011;46162;57.568;25.814;2022-11-24T15:18:38;13.30;;;6.75;;
59649;SDS011;46162;57.568;25.814;2022-11-24T15:21:09;14.02;;;6.78;;